Time;durP1;ratioP1;P1;durP2;ratioP2;P2;SDS_P1;SDS_P2;PMS_P1;PMS_P2;Temp;Humidity;BMP_temperature;BMP_pressure;BME280_temperature;BME280_humidity;BME280_pressure;Samples;Min_cycle;Max_cycle;Signal;HPM_P1;HPM_P2
2021/06/01 00:01:28;;;;;;;;;;;10.10;99.90;;;;;;6256918;23;19923;-80
2021/06/01 00:03:56;;;;;;;;;;;10.10;99.90;;;;;;6230253;23;19964;-80
2021/06/01 00:06:23;;;;;;;;;;;10.00;99.90;;;;;;6253152;23;19927;-80
2021/06/01 00:08:51;;;;;;;;;;;9.90;99.90;;;;;;6243398;23;19924;-79
2021/06/01 00:11:19;;;;;;;;;;;9.80;99.90;;;;;;6242641;23;20310;-79
2021/06/01 00:13:46;;;;;;;;;;;9.70;99.90;;;;;;6242808;22;19947;-79
2021/06/01 00:16:14;;;;;;;;;;;9.70;99.90;;;;;;6243156;23;19919;-79
2021/06/01 00:18:43;;;;;;;;;;;9.70;99.90;;;;;;6243558;23;20087;-79
2021/06/01 00:21:11;;;;;;;;;;;9.70;99.90;;;;;;6242781;23;19919;-80
2021/06/01 00:23:43;;;;;;;;;;;9.70;99.90;;;;;;6241320;22;19947;-79
2021/06/01 00:26:11;;;;;;;;;;;9.70;99.90;;;;;;6243494;22;19926;-79
2021/06/01 00:28:40;;;;;;;;;;;9.70;99.90;;;;;;6243086;23;19990;-79
2021/06/01 00:31:12;;;;;;;;;;;9.70;99.90;;;;;;6241756;23;20325;-79
2021/06/01 00:33:40;;;;;;;;;;;9.70;99.90;;;;;;6242320;22;19958;-79
2021/06/01 00:36:07;;;;;;;;;;;9.60;99.90;;;;;;6242692;23;19926;-80
2021/06/01 00:38:36;;;;;;;;;;;9.50;99.90;;;;;;6242726;23;19923;-80
2021/06/01 00:41:04;;;;;;;;;;;9.40;99.90;;;;;;6242768;23;19920;-79
2021/06/01 00:43:36;;;;;;;;;;;9.40;99.90;;;;;;6241753;22;20248;-79
2021/06/01 00:46:04;;;;;;;;;;;9.30;99.90;;;;;;6269154;22;20233;-79
2021/06/01 00:48:31;;;;;;;;;;;9.30;99.90;;;;;;6243374;23;20356;-79
2021/06/01 00:51:03;;;;;;;;;;;9.30;99.90;;;;;;6244637;23;20337;-79
2021/06/01 00:53:31;;;;;;;;;;;9.30;99.90;;;;;;6242176;22;20011;-79
2021/06/01 00:56:04;;;;;;;;;;;9.30;99.90;;;;;;6242041;23;19926;-79
2021/06/01 00:58:36;;;;;;;;;;;9.20;99.90;;;;;;6241446;23;19919;-78
2021/06/01 01:03:40;;;;;;;;;;;9.10;99.90;;;;;;6241338;22;19990;-80
2021/06/01 01:06:35;;;;;;;;;;;9.00;99.90;;;;;;6241289;23;19991;-79
2021/06/01 01:09:09;;;;;;;;;;;8.90;99.90;;;;;;6215711;23;19950;-79
2021/06/01 01:11:51;;;;;;;;;;;8.90;99.90;;;;;;6242043;22;19923;-79
2021/06/01 01:14:22;;;;;;;;;;;8.80;99.90;;;;;;6216938;23;19920;-79
2021/06/01 01:16:57;;;;;;;;;;;8.80;99.90;;;;;;6242308;23;19926;-79
2021/06/01 01:19:35;;;;;;;;;;;8.80;99.90;;;;;;6241198;23;19985;-79
2021/06/01 01:22:03;;;;;;;;;;;8.80;99.90;;;;;;6216966;23;19919;-79
2021/06/01 01:24:42;;;;;;;;;;;8.80;99.90;;;;;;6241309;23;19919;-79
2021/06/01 01:27:17;;;;;;;;;;;8.70;99.90;;;;;;6217634;23;19919;-78
2021/06/01 01:29:48;;;;;;;;;;;8.70;99.90;;;;;;6268694;22;19942;-79
2021/06/01 01:32:35;;;;;;;;;;;8.70;99.90;;;;;;6242592;22;19942;-79
2021/06/01 01:35:03;;;;;;;;;;;8.60;99.90;;;;;;6192733;23;20344;-79
2021/06/01 01:37:32;;;;;;;;;;;8.60;99.90;;;;;;6242180;23;19923;-80
2021/06/01 01:40:00;;;;;;;;;;;8.50;99.90;;;;;;6267864;22;20340;-79
2021/06/01 01:42:41;;;;;;;;;;;8.50;99.90;;;;;;6266604;22;19950;-79
2021/06/01 01:45:11;;;;;;;;;;;8.50;99.90;;;;;;6242247;23;20303;-79
2021/06/01 01:50:17;;;;;;;;;;;8.30;99.90;;;;;;6268620;22;19927;-79
2021/06/01 01:52:49;;;;;;;;;;;8.30;99.90;;;;;;6217404;23;19920;-79
2021/06/01 01:55:17;;;;;;;;;;;8.30;99.90;;;;;;6268573;22;20336;-79
2021/06/01 01:57:46;;;;;;;;;;;8.30;99.90;;;;;;6268453;22;19923;-79
2021/06/01 02:00:15;;;;;;;;;;;8.30;99.90;;;;;;6242543;23;19970;-79
2021/06/01 02:02:44;;;;;;;;;;;8.30;99.90;;;;;;6217210;23;19919;-79
2021/06/01 02:05:16;;;;;;;;;;;8.20;99.90;;;;;;6267594;22;19926;-79
2021/06/01 02:07:49;;;;;;;;;;;8.20;99.90;;;;;;6241698;23;19923;-79
2021/06/01 02:10:16;;;;;;;;;;;8.10;99.90;;;;;;6242490;23;19923;-79
2021/06/01 02:12:43;;;;;;;;;;;8.10;99.90;;;;;;6242183;22;19969;-79
2021/06/01 02:15:10;;;;;;;;;;;8.10;99.90;;;;;;6242601;23;19927;-79
2021/06/01 02:17:37;;;;;;;;;;;8.00;99.90;;;;;;6242675;23;19920;-79
2021/06/01 02:20:06;;;;;;;;;;;8.00;99.90;;;;;;6268270;22;19926;-79
2021/06/01 02:25:16;;;;;;;;;;;7.90;99.90;;;;;;6244625;23;20252;-79
2021/06/01 02:27:50;;;;;;;;;;;7.90;99.90;;;;;;6268355;22;19927;-79
2021/06/01 02:30:23;;;;;;;;;;;7.90;99.90;;;;;;6241653;23;19920;-79
2021/06/01 02:33:00;;;;;;;;;;;7.90;99.90;;;;;;6240920;22;19919;-79
2021/06/01 02:35:35;;;;;;;;;;;7.90;99.90;;;;;;6242834;23;19926;-79
2021/06/01 02:38:04;;;;;;;;;;;7.80;99.90;;;;;;6242692;23;19919;-78
2021/06/01 02:40:31;;;;;;;;;;;7.80;99.90;;;;;;6242456;23;19946;-79
2021/06/01 02:43:00;;;;;;;;;;;7.70;99.90;;;;;;6192320;23;19920;-79
2021/06/01 02:45:36;;;;;;;;;;;7.70;99.90;;;;;;6193395;23;20384;-79
2021/06/01 02:48:03;;;;;;;;;;;7.60;99.90;;;;;;6242072;23;19920;-79
2021/06/01 02:50:31;;;;;;;;;;;7.60;99.90;;;;;;6217474;23;19966;-79
2021/06/01 02:53:05;;;;;;;;;;;7.60;99.90;;;;;;6240977;22;19919;-79
2021/06/01 02:55:37;;;;;;;;;;;7.60;99.90;;;;;;6217460;23;20002;-79
2021/06/01 02:58:10;;;;;;;;;;;7.50;99.90;;;;;;6267100;22;19920;-79
2021/06/01 03:00:38;;;;;;;;;;;7.50;99.90;;;;;;6242445;23;19919;-79
2021/06/01 03:03:05;;;;;;;;;;;7.40;99.90;;;;;;6242354;22;19920;-79
2021/06/01 03:05:37;;;;;;;;;;;7.50;99.90;;;;;;6217431;23;19919;-79
2021/06/01 03:08:09;;;;;;;;;;;7.40;99.90;;;;;;6217597;23;19954;-79
2021/06/01 03:10:37;;;;;;;;;;;7.40;99.90;;;;;;6235429;23;19926;-80
2021/06/01 03:13:03;;;;;;;;;;;7.30;99.90;;;;;;6258606;22;19927;-80
2021/06/01 03:15:35;;;;;;;;;;;7.30;99.90;;;;;;6259048;23;19963;-79
2021/06/01 03:18:02;;;;;;;;;;;7.30;99.90;;;;;;6247267;23;19974;-79
2021/06/01 03:20:29;;;;;;;;;;;7.30;99.90;;;;;;6242538;23;19920;-79
2021/06/01 03:23:01;;;;;;;;;;;7.20;99.90;;;;;;6268804;22;19924;-79
2021/06/01 03:25:33;;;;;;;;;;;7.20;99.90;;;;;;6268751;22;19919;-79
2021/06/01 03:28:00;;;;;;;;;;;7.20;99.90;;;;;;6244229;23;19923;-79
2021/06/01 03:30:27;;;;;;;;;;;7.20;99.90;;;;;;6243967;23;19919;-79
2021/06/01 03:32:56;;;;;;;;;;;7.20;99.90;;;;;;6243903;22;19923;-79
2021/06/01 03:35:23;;;;;;;;;;;7.20;99.90;;;;;;6244108;23;19951;-79
2021/06/01 03:37:51;;;;;;;;;;;7.20;99.90;;;;;;6218849;23;19919;-79
2021/06/01 03:40:23;;;;;;;;;;;7.20;99.90;;;;;;6243504;23;20260;-79
2021/06/01 03:42:51;;;;;;;;;;;7.20;99.90;;;;;;6218794;23;20348;-79
2021/06/01 03:45:19;;;;;;;;;;;7.20;99.90;;;;;;6244233;23;19919;-79
2021/06/01 03:47:51;;;;;;;;;;;7.10;99.90;;;;;;6243121;23;19923;-79
2021/06/01 03:50:18;;;;;;;;;;;7.10;99.90;;;;;;6243677;23;19998;-79
2021/06/01 03:52:45;;;;;;;;;;;7.20;99.90;;;;;;6242863;22;19947;-79
2021/06/01 03:55:13;;;;;;;;;;;7.20;99.90;;;;;;6243021;23;19994;-79
2021/06/01 03:57:40;;;;;;;;;;;7.20;99.90;;;;;;6268873;22;20002;-79
2021/06/01 04:00:09;;;;;;;;;;;7.20;99.90;;;;;;6243028;23;19928;-79
2021/06/01 04:02:39;;;;;;;;;;;7.20;99.90;;;;;;6273494;22;19926;-79
2021/06/01 04:05:06;;;;;;;;;;;7.20;99.90;;;;;;6268952;22;19923;-79
2021/06/01 04:07:33;;;;;;;;;;;7.20;99.90;;;;;;6243228;23;20359;-79
2021/06/01 04:10:00;;;;;;;;;;;7.20;99.90;;;;;;6268853;22;20329;-79
2021/06/01 04:12:27;;;;;;;;;;;7.30;99.90;;;;;;6243010;22;19930;-79
2021/06/01 04:14:54;;;;;;;;;;;7.30;99.90;;;;;;6268253;22;19923;-79
2021/06/01 04:17:20;;;;;;;;;;;7.40;99.90;;;;;;6243060;23;20265;-79
2021/06/01 04:19:52;;;;;;;;;;;7.40;99.90;;;;;;6241966;23;19963;-79
2021/06/01 04:22:24;;;;;;;;;;;7.40;99.90;;;;;;6241779;22;19920;-79
2021/06/01 04:24:51;;;;;;;;;;;7.40;99.90;;;;;;6268263;22;19945;-79
2021/06/01 04:27:18;;;;;;;;;;;7.50;99.90;;;;;;6242738;23;19926;-79
2021/06/01 04:29:50;;;;;;;;;;;7.50;99.90;;;;;;6241596;23;19931;-79
2021/06/01 04:32:22;;;;;;;;;;;7.60;99.90;;;;;;6267218;22;19920;-79
2021/06/01 04:34:48;;;;;;;;;;;7.60;99.90;;;;;;6244255;23;20002;-80
2021/06/01 04:37:16;;;;;;;;;;;7.70;99.90;;;;;;6246722;23;20379;-81
2021/06/01 04:39:43;;;;;;;;;;;7.70;99.90;;;;;;6271941;22;19930;-79
2021/06/01 04:42:11;;;;;;;;;;;7.80;99.90;;;;;;6242913;22;20344;-79
2021/06/01 04:44:43;;;;;;;;;;;7.80;99.90;;;;;;6242064;23;19995;-80
2021/06/01 04:47:11;;;;;;;;;;;7.80;99.90;;;;;;6243210;23;20337;-80
2021/06/01 04:49:38;;;;;;;;;;;7.90;99.90;;;;;;6243131;23;19970;-80
2021/06/01 04:52:06;;;;;;;;;;;7.90;99.90;;;;;;6193175;23;19974;-80
2021/06/01 04:54:33;;;;;;;;;;;7.90;99.90;;;;;;6242451;23;19950;-79
2021/06/01 04:57:00;;;;;;;;;;;7.90;99.90;;;;;;6243228;23;19995;-79
2021/06/01 04:59:35;;;;;;;;;;;8.00;99.90;;;;;;6241889;23;20354;-79
2021/06/01 05:02:03;;;;;;;;;;;8.00;99.90;;;;;;6242838;22;19924;-80
2021/06/01 05:04:30;;;;;;;;;;;8.00;99.90;;;;;;6242422;23;19965;-79
2021/06/01 05:06:59;;;;;;;;;;;8.10;99.90;;;;;;6242723;23;19935;-79
2021/06/01 05:09:26;;;;;;;;;;;8.10;99.90;;;;;;6243453;22;20074;-80
2021/06/01 05:11:54;;;;;;;;;;;8.10;99.90;;;;;;6242581;22;19947;-80
2021/06/01 05:14:21;;;;;;;;;;;8.20;99.90;;;;;;6242492;23;19920;-80
2021/06/01 05:16:54;;;;;;;;;;;8.20;99.90;;;;;;6267340;22;19923;-80
2021/06/01 05:19:21;;;;;;;;;;;8.20;99.90;;;;;;6268368;22;19920;-79
2021/06/01 05:21:48;;;;;;;;;;;8.30;99.90;;;;;;6242780;22;19966;-80
2021/06/01 05:24:16;;;;;;;;;;;8.30;99.90;;;;;;6242261;23;20002;-79
2021/06/01 05:26:44;;;;;;;;;;;8.30;99.90;;;;;;6242558;23;20303;-80
2021/06/01 05:29:16;;;;;;;;;;;8.40;99.90;;;;;;6241835;23;20341;-80
2021/06/01 05:32:52;;;;;;;;;;;8.40;99.90;;;;;;6242351;22;19927;-79
2021/06/01 05:34:38;;;;;;;;;;;8.50;99.90;;;;;;6215668;23;19919;-79
2021/06/01 05:37:06;;;;;;;;;;;8.60;99.90;;;;;;6242743;23;19926;-80
2021/06/01 05:39:33;;;;;;;;;;;8.60;99.90;;;;;;6217527;23;20268;-80
2021/06/01 05:42:00;;;;;;;;;;;8.70;99.90;;;;;;6242398;22;19919;-79
2021/06/01 05:44:28;;;;;;;;;;;8.70;99.90;;;;;;6241792;23;19919;-79
2021/06/01 05:47:01;;;;;;;;;;;8.80;99.90;;;;;;6241560;23;19924;-79
2021/06/01 05:49:28;;;;;;;;;;;8.90;99.90;;;;;;6268362;22;19920;-80
2021/06/01 05:52:00;;;;;;;;;;;8.90;99.90;;;;;;6241334;23;20345;-80
2021/06/01 05:54:27;;;;;;;;;;;9.00;99.90;;;;;;6242291;23;20364;-79
2021/06/01 05:56:55;;;;;;;;;;;9.10;99.90;;;;;;6242400;23;19919;-80
2021/06/01 05:59:22;;;;;;;;;;;9.10;99.90;;;;;;6243242;23;19920;-79
2021/06/01 06:01:50;;;;;;;;;;;9.20;99.90;;;;;;6268276;22;19919;-79
2021/06/01 06:04:17;;;;;;;;;;;9.30;99.90;;;;;;6242098;23;19919;-80
2021/06/01 06:06:50;;;;;;;;;;;9.40;99.90;;;;;;6241880;23;19947;-79
2021/06/01 06:09:21;;;;;;;;;;;9.50;99.90;;;;;;6244161;23;20337;-78
2021/06/01 06:11:53;;;;;;;;;;;9.60;99.90;;;;;;6242312;22;19923;-79
2021/06/01 06:14:25;;;;;;;;;;;9.70;99.90;;;;;;6242372;23;19927;-79
2021/06/01 06:17:00;;;;;;;;;;;9.80;99.90;;;;;;6219900;23;19919;-79
2021/06/01 06:19:26;;;;;;;;;;;9.90;99.90;;;;;;6249482;23;19984;-80
2021/06/01 06:21:53;;;;;;;;;;;10.00;99.90;;;;;;6280228;22;19923;-80
2021/06/01 06:24:20;;;;;;;;;;;10.10;99.90;;;;;;6254232;23;19919;-81
2021/06/01 06:26:47;;;;;;;;;;;10.20;99.90;;;;;;6254086;23;20522;-80
2021/06/01 06:29:18;;;;;;;;;;;10.30;99.90;;;;;;6268183;22;20344;-79
2021/06/01 06:31:45;;;;;;;;;;;10.40;99.90;;;;;;6243610;22;20491;-79
2021/06/01 06:34:12;;;;;;;;;;;10.60;99.90;;;;;;6219124;23;20303;-80
2021/06/01 06:36:43;;;;;;;;;;;10.70;99.90;;;;;;6243363;23;19923;-79
2021/06/01 06:39:15;;;;;;;;;;;10.90;99.90;;;;;;6268799;22;20002;-80
2021/06/01 06:44:42;;;;;;;;;;;11.10;99.90;;;;;;6188653;23;19926;-80
2021/06/01 06:47:23;;;;;;;;;;;11.30;99.90;;;;;;6165163;23;19977;-80
2021/06/01 06:49:50;;;;;;;;;;;11.40;99.90;;;;;;6189226;23;19920;-79
2021/06/01 06:52:17;;;;;;;;;;;11.60;99.90;;;;;;6191956;23;19920;-80
2021/06/01 06:54:44;;;;;;;;;;;11.80;99.90;;;;;;6163814;23;20260;-80
2021/06/01 06:57:16;;;;;;;;;;;12.00;99.90;;;;;;6191815;23;20002;-79
2021/06/01 06:59:42;;;;;;;;;;;12.20;99.90;;;;;;6215616;23;19920;-79
2021/06/01 07:02:10;;;;;;;;;;;12.40;99.90;;;;;;6166119;23;19947;-82
2021/06/01 07:04:37;;;;;;;;;;;12.70;99.90;;;;;;6190443;23;19920;-79
2021/06/01 07:07:04;;;;;;;;;;;12.90;99.90;;;;;;6165867;23;20337;-79
2021/06/01 07:09:31;;;;;;;;;;;13.10;99.90;;;;;;6189899;23;19950;-80
2021/06/01 07:11:58;;;;;;;;;;;13.30;99.90;;;;;;6190696;23;20233;-79
2021/06/01 07:14:26;;;;;;;;;;;13.40;99.90;;;;;;6165912;23;19919;-80
2021/06/01 07:16:53;;;;;;;;;;;13.50;99.90;;;;;;6190563;23;20321;-79
2021/06/01 07:19:21;;;;;;;;;;;13.70;99.90;;;;;;6190521;23;19927;-80
2021/06/01 07:21:48;;;;;;;;;;;13.90;99.90;;;;;;6187872;23;19935;-77
2021/06/01 07:24:20;;;;;;;;;;;14.00;99.90;;;;;;6164675;23;19958;-78
2021/06/01 07:26:46;;;;;;;;;;;14.20;99.90;;;;;;6164021;23;19943;-78
2021/06/01 07:29:13;;;;;;;;;;;14.30;99.90;;;;;;6188792;23;19943;-76
2021/06/01 07:31:40;;;;;;;;;;;14.40;99.90;;;;;;6163927;23;19947;-78
2021/06/01 07:34:06;;;;;;;;;;;14.60;99.90;;;;;;6186295;23;19959;-78
2021/06/01 07:36:38;;;;;;;;;;;14.60;99.90;;;;;;6189373;23;20313;-78
2021/06/01 07:39:05;;;;;;;;;;;14.80;99.90;;;;;;6188516;23;19932;-78
2021/06/01 07:41:32;;;;;;;;;;;14.90;99.90;;;;;;6163028;23;19942;-79
2021/06/01 07:44:02;;;;;;;;;;;14.90;99.90;;;;;;6188594;23;20264;-78
2021/06/01 07:46:34;;;;;;;;;;;15.10;99.90;;;;;;6190066;23;19942;-78
2021/06/01 07:49:06;;;;;;;;;;;15.30;99.90;;;;;;6189822;23;20234;-78
2021/06/01 07:51:33;;;;;;;;;;;15.40;99.90;;;;;;6164197;23;19944;-78
2021/06/01 07:54:03;;;;;;;;;;;15.50;99.90;;;;;;6188403;23;19948;-78
2021/06/01 07:56:30;;;;;;;;;;;15.60;99.90;;;;;;6163570;23;19920;-77
2021/06/01 07:59:01;;;;;;;;;;;15.70;99.90;;;;;;6189656;23;19999;-78
2021/06/01 08:01:33;;;;;;;;;;;15.80;99.90;;;;;;6189729;23;20006;-78
2021/06/01 08:04:00;;;;;;;;;;;15.80;99.90;;;;;;6191479;23;19958;-78
2021/06/01 08:06:30;;;;;;;;;;;15.90;99.90;;;;;;6163404;23;19947;-78
2021/06/01 08:08:57;;;;;;;;;;;16.10;99.90;;;;;;6187349;23;20361;-77
2021/06/01 08:11:28;;;;;;;;;;;16.20;99.90;;;;;;6163986;23;20128;-78
2021/06/01 08:14:00;;;;;;;;;;;16.30;99.90;;;;;;6189570;23;20002;-78
2021/06/01 08:16:27;;;;;;;;;;;16.50;99.90;;;;;;6164154;23;19947;-78
2021/06/01 08:19:17;;;;;;;;;;;16.70;99.50;;;;;;6165335;23;19924;-77
2021/06/01 08:22:00;;;;;;;;;;;16.80;97.80;;;;;;6189015;23;19954;-78
2021/06/01 08:24:33;;;;;;;;;;;17.00;95.60;;;;;;6189380;23;19926;-78
2021/06/01 08:27:05;;;;;;;;;;;17.10;93.60;;;;;;6190163;23;20007;-78
2021/06/01 08:29:31;;;;;;;;;;;17.20;92.80;;;;;;6188665;23;20322;-78
2021/06/01 08:31:58;;;;;;;;;;;17.30;92.20;;;;;;6213560;23;19920;-78
2021/06/01 08:34:25;;;;;;;;;;;17.40;91.60;;;;;;6188236;23;19955;-78
2021/06/01 08:36:52;;;;;;;;;;;17.50;87.40;;;;;;6189011;23;20364;-78
2021/06/01 08:39:24;;;;;;;;;;;17.50;89.60;;;;;;6188605;23;19967;-78
2021/06/01 08:41:56;;;;;;;;;;;17.70;87.20;;;;;;6164969;23;19955;-77
2021/06/01 08:44:28;;;;;;;;;;;17.80;82.40;;;;;;6189495;23;20396;-78
2021/06/01 08:46:56;;;;;;;;;;;17.90;82.70;;;;;;6188540;23;20348;-78
2021/06/01 08:49:28;;;;;;;;;;;18.00;81.40;;;;;;6189466;23;20389;-78
2021/06/01 08:51:55;;;;;;;;;;;18.10;80.20;;;;;;6188225;23;19947;-78
2021/06/01 08:54:27;;;;;;;;;;;18.20;79.40;;;;;;6189395;23;19947;-78
2021/06/01 08:56:59;;;;;;;;;;;18.30;75.00;;;;;;6164746;23;19920;-78
2021/06/01 08:59:30;;;;;;;;;;;18.40;73.00;;;;;;6190724;23;19951;-78
2021/06/01 09:01:59;;;;;;;;;;;18.40;74.60;;;;;;6163500;23;20344;-78
2021/06/01 09:04:53;;;;;;;;;;;18.50;76.60;;;;;;6186952;23;20018;-79
2021/06/01 09:21:15;;;;;;;;;;;19.00;68.90;;;;;;6187071;23;20022;-78
2021/06/01 09:23:52;;;;;;;;;;;19.00;69.50;;;;;;6160879;23;20030;-78
2021/06/01 09:26:37;;;;;;;;;;;19.00;68.40;;;;;;6161769;23;19986;-78
2021/06/01 09:29:04;;;;;;;;;;;19.10;68.10;;;;;;6187663;23;19930;-78
2021/06/01 09:31:31;;;;;;;;;;;19.20;66.30;;;;;;6187978;23;19998;-79
2021/06/01 09:33:58;;;;;;;;;;;19.30;66.80;;;;;;6188047;23;19927;-79
2021/06/01 09:36:25;;;;;;;;;;;19.30;66.00;;;;;;6188990;23;19927;-78
2021/06/01 09:38:52;;;;;;;;;;;19.40;63.90;;;;;;6163719;23;20256;-79
2021/06/01 09:41:28;;;;;;;;;;;19.40;62.60;;;;;;6189674;23;19919;-78
2021/06/01 09:43:55;;;;;;;;;;;19.50;65.30;;;;;;6162045;23;19948;-78
2021/06/01 09:46:28;;;;;;;;;;;19.60;63.80;;;;;;6188202;23;19920;-78
2021/06/01 09:49:13;;;;;;;;;;;19.80;62.00;;;;;;6188218;23;19930;-78
2021/06/01 09:51:46;;;;;;;;;;;19.90;61.40;;;;;;6188992;23;19920;-78
2021/06/01 09:54:57;;;;;;;;;;;20.00;63.10;;;;;;6188286;23;20006;-78
2021/06/01 09:57:26;;;;;;;;;;;20.00;60.70;;;;;;6093399;23;19922;-77
2021/06/01 10:00:09;;;;;;;;;;;20.10;60.00;;;;;;6091586;23;20346;-78
2021/06/01 10:02:45;;;;;;;;;;;20.20;60.00;;;;;;6175175;23;19920;-78
2021/06/01 10:05:18;;;;;;;;;;;20.30;57.70;;;;;;6188346;23;19960;-77
2021/06/01 10:07:46;;;;;;;;;;;20.30;59.80;;;;;;6187536;23;19920;-79
2021/06/01 10:10:14;;;;;;;;;;;20.50;56.20;;;;;;6187714;23;19920;-78
2021/06/01 10:12:47;;;;;;;;;;;20.50;56.50;;;;;;6160898;23;20653;-78
2021/06/01 10:15:15;;;;;;;;;;;20.60;57.90;;;;;;6187177;23;20345;-78
2021/06/01 10:17:43;;;;;;;;;;;20.70;56.90;;;;;;6187523;23;19995;-78
2021/06/01 10:20:10;;;;;;;;;;;20.80;57.10;;;;;;6187563;23;19927;-78
2021/06/01 10:22:42;;;;;;;;;;;20.90;57.50;;;;;;6188490;23;19969;-78
2021/06/01 10:25:09;;;;;;;;;;;20.90;55.40;;;;;;6186830;23;20300;-78
2021/06/01 10:27:36;;;;;;;;;;;21.00;56.60;;;;;;6163369;23;19927;-79
2021/06/01 10:30:08;;;;;;;;;;;21.00;59.40;;;;;;6190375;23;19985;-77
2021/06/01 10:32:37;;;;;;;;;;;21.00;54.30;;;;;;6190198;23;19920;-79
2021/06/01 10:35:08;;;;;;;;;;;21.10;55.70;;;;;;6188883;23;19919;-78
2021/06/01 10:52:05;;;;;;;;;;;21.70;58.10;;;;;;6247597;22;19997;-79
2021/06/01 10:54:43;;;;;;;;;;;21.80;57.40;;;;;;6249000;22;19925;-80
2021/06/01 10:57:12;;;;;;;;;;;21.80;56.90;;;;;;6249704;22;20307;-80
2021/06/01 11:02:31;;;;;;;;;;;22.00;54.70;;;;;;6247740;22;19919;-80
2021/06/01 11:05:17;;;;;;;;;;;22.10;55.10;;;;;;6224087;22;20401;-79
2021/06/01 11:08:03;;;;;;;;;;;22.20;52.60;;;;;;6253958;22;19920;-79
2021/06/01 11:10:46;;;;;;;;;;;22.10;51.70;;;;;;6231580;22;19919;-78
2021/06/01 11:13:19;;;;;;;;;;;22.20;53.90;;;;;;6237773;22;19942;-80
2021/06/01 11:15:52;;;;;;;;;;;22.20;52.70;;;;;;6263977;22;19942;-78
2021/06/01 11:18:22;;;;;;;;;;;22.30;52.50;;;;;;6236643;22;19919;-78
2021/06/01 11:21:04;;;;;;;;;;;22.40;51.30;;;;;;6232705;22;19919;-78
2021/06/01 11:34:44;;;;;;;;;;;22.80;51.50;;;;;;6250490;22;19919;-81
2021/06/01 11:37:27;;;;;;;;;;;22.80;51.40;;;;;;6226513;22;19927;-80
2021/06/01 11:43:03;;;;;;;;;;;23.00;49.10;;;;;;6223386;22;19919;-81
2021/06/01 11:45:41;;;;;;;;;;;23.00;49.20;;;;;;6250908;22;19919;-81
2021/06/01 11:48:25;;;;;;;;;;;23.10;47.70;;;;;;6224723;22;20307;-79
2021/06/01 11:51:11;;;;;;;;;;;23.10;48.20;;;;;;6250072;22;20260;-80
2021/06/01 11:53:44;;;;;;;;;;;23.10;46.20;;;;;;6249954;22;19926;-81
2021/06/01 11:56:32;;;;;;;;;;;23.20;46.70;;;;;;6225703;22;19919;-80
2021/06/01 12:04:46;;;;;;;;;;;23.30;47.50;;;;;;6249882;22;19928;-81
2021/06/01 12:18:32;;;;;;;;;;;23.80;47.20;;;;;;6250647;22;19926;-80
2021/06/01 12:21:08;;;;;;;;;;;24.00;45.30;;;;;;6226359;22;19925;-81
2021/06/01 12:23:35;;;;;;;;;;;23.90;45.30;;;;;;6224687;22;20263;-81
2021/06/01 12:26:05;;;;;;;;;;;23.90;46.20;;;;;;6252981;22;19919;-81
2021/06/01 12:31:30;;;;;;;;;;;23.90;45.40;;;;;;6205735;22;19927;-81
2021/06/01 12:34:00;;;;;;;;;;;23.90;45.20;;;;;;6232864;22;19923;-82
2021/06/01 13:13:03;;;;;;;;;;;24.50;42.40;;;;;;6247264;22;19938;-81
2021/06/01 13:19:53;;;;;;;;;;;24.80;42.90;;;;;;6144970;23;19944;-81
2021/06/01 13:32:32;;;;;;;;;;;25.30;39.80;;;;;;6126255;23;19952;-80
2021/06/01 13:46:04;;;;;;;;;;;25.50;40.00;;;;;;6101714;23;20354;-80
2021/06/01 13:48:49;;;;;;;;;;;25.50;39.90;;;;;;6125862;23;19944;-80
2021/06/01 14:21:20;;;;;;;;;;;26.30;35.80;;;;;;6212937;23;19970;-79
2021/06/01 14:32:11;;;;;;;;;;;26.60;34.20;;;;;;6212554;23;19928;-79
2021/06/01 15:03:51;;;;;;;;;;;27.20;34.60;;;;;;6213913;23;20010;-77
2021/06/01 16:11:33;;;;;;;;;;;30.30;32.80;;;;;;6219266;23;19954;-81
2021/06/01 17:06:21;;;;;;;;;;;30.80;29.70;;;;;;6214300;23;20407;-79
2021/06/01 17:11:31;;;;;;;;;;;30.80;30.60;;;;;;6214703;23;19920;-79
2021/06/01 17:13:59;;;;;;;;;;;30.90;30.00;;;;;;6132937;23;1892259;-79
2021/06/01 17:35:56;;;;;;;;;;;30.10;31.80;;;;;;6216619;23;20633;-80
2021/06/01 17:38:24;;;;;;;;;;;29.80;32.60;;;;;;6217378;23;19919;-80
2021/06/01 17:40:53;;;;;;;;;;;29.40;32.60;;;;;;6215862;23;19920;-80
2021/06/01 17:43:26;;;;;;;;;;;28.70;32.60;;;;;;6217365;23;19920;-80
2021/06/01 17:45:54;;;;;;;;;;;28.40;32.70;;;;;;6217465;23;20345;-80
2021/06/01 17:48:31;;;;;;;;;;;28.00;32.80;;;;;;6192803;23;20261;-80
2021/06/01 17:51:07;;;;;;;;;;;27.70;34.00;;;;;;6218211;23;19920;-79
2021/06/01 17:53:43;;;;;;;;;;;27.40;34.50;;;;;;6196208;23;19928;-79
2021/06/01 17:56:12;;;;;;;;;;;27.10;34.00;;;;;;6193898;23;20350;-79
2021/06/01 17:58:39;;;;;;;;;;;26.80;35.80;;;;;;6193963;23;19959;-79
2021/06/01 18:01:07;;;;;;;;;;;26.50;35.30;;;;;;6187802;23;19920;-79
2021/06/01 18:03:39;;;;;;;;;;;26.40;36.60;;;;;;6190620;23;19920;-80
2021/06/01 18:06:07;;;;;;;;;;;26.20;36.80;;;;;;6186891;23;19927;-79
2021/06/01 18:08:52;;;;;;;;;;;25.90;37.10;;;;;;6188295;23;19920;-79
2021/06/01 18:40:45;;;;;;;;;;;23.80;41.40;;;;;;6217272;23;19943;-79
2021/06/01 19:06:03;;;;;;;;;;;21.60;47.60;;;;;;6218483;23;19924;-79
2021/06/01 19:49:54;;;;;;;;;;;18.60;52.60;;;;;;6220552;23;19920;-81
2021/06/01 19:52:14;;;;;;;;;;;18.50;52.80;;;;;;6219504;23;19944;-79
2021/06/01 19:54:41;;;;;;;;;;;18.50;53.20;;;;;;6192045;23;20010;-78
2021/06/01 19:57:11;;;;;;;;;;;18.40;53.10;;;;;;6192474;23;19923;-79
2021/06/01 19:59:44;;;;;;;;;;;18.30;53.50;;;;;;6193600;23;19927;-79
2021/06/01 20:02:16;;;;;;;;;;;18.20;53.80;;;;;;6217312;23;19931;-79
2021/06/01 20:04:44;;;;;;;;;;;18.10;54.00;;;;;;6218454;23;19920;-80
2021/06/01 20:07:12;;;;;;;;;;;18.00;53.80;;;;;;6192631;23;19968;-79
2021/06/01 20:09:40;;;;;;;;;;;17.90;54.30;;;;;;6218122;23;19994;-79
2021/06/01 20:12:08;;;;;;;;;;;17.80;54.90;;;;;;6193546;23;19920;-79
2021/06/01 20:14:40;;;;;;;;;;;17.60;55.50;;;;;;6218168;23;20400;-79
2021/06/01 20:17:11;;;;;;;;;;;17.50;55.50;;;;;;6193117;23;20372;-79
2021/06/01 20:19:44;;;;;;;;;;;17.40;55.80;;;;;;6217889;23;19926;-79
2021/06/01 20:25:01;;;;;;;;;;;17.20;56.30;;;;;;6244400;22;19926;-79
2021/06/01 20:27:29;;;;;;;;;;;17.20;56.80;;;;;;6222895;23;19926;-79
2021/06/01 20:30:01;;;;;;;;;;;17.10;56.90;;;;;;6248597;23;19920;-79
2021/06/01 20:35:30;;;;;;;;;;;16.90;58.00;;;;;;6249621;22;19927;-79
2021/06/01 20:37:57;;;;;;;;;;;16.90;58.20;;;;;;6223424;23;19919;-79
2021/06/01 20:40:25;;;;;;;;;;;16.90;58.80;;;;;;6248323;23;19943;-79
2021/06/01 20:42:53;;;;;;;;;;;16.80;58.80;;;;;;6197949;23;20118;-79
2021/06/01 20:45:26;;;;;;;;;;;16.80;59.30;;;;;;6198193;23;19920;-79
2021/06/01 20:47:54;;;;;;;;;;;16.80;59.30;;;;;;6223223;23;19946;-79
2021/06/01 20:50:22;;;;;;;;;;;16.60;59.70;;;;;;6245065;23;19926;-77
2021/06/01 20:52:49;;;;;;;;;;;16.60;59.90;;;;;;6246850;22;19919;-78
2021/06/01 20:55:16;;;;;;;;;;;16.50;60.10;;;;;;6248895;23;20260;-78
2021/06/01 20:57:50;;;;;;;;;;;16.50;60.90;;;;;;6195650;23;19963;-78
2021/06/01 21:00:24;;;;;;;;;;;16.40;61.90;;;;;;6241376;23;20003;-78
2021/06/01 21:02:51;;;;;;;;;;;16.30;61.50;;;;;;6242436;22;19920;-78
2021/06/01 21:05:18;;;;;;;;;;;16.20;63.30;;;;;;6216973;23;20001;-78
2021/06/01 21:07:45;;;;;;;;;;;16.10;63.60;;;;;;6267575;22;19920;-77
2021/06/01 21:10:17;;;;;;;;;;;16.10;64.60;;;;;;6241330;23;20002;-78
2021/06/01 21:12:44;;;;;;;;;;;16.00;65.00;;;;;;6217448;23;19990;-77
2021/06/01 21:15:10;;;;;;;;;;;15.90;66.10;;;;;;6267308;22;19961;-78
2021/06/01 21:17:38;;;;;;;;;;;15.90;66.30;;;;;;6242138;23;19920;-77
2021/06/01 21:20:11;;;;;;;;;;;15.80;66.50;;;;;;6241010;23;20352;-77
2021/06/01 21:22:38;;;;;;;;;;;15.70;66.70;;;;;;6242079;22;20380;-78
2021/06/01 21:25:07;;;;;;;;;;;15.70;67.70;;;;;;6241851;23;19950;-77
2021/06/01 21:27:34;;;;;;;;;;;15.60;67.90;;;;;;6267949;22;19926;-78
2021/06/01 21:30:02;;;;;;;;;;;15.50;69.10;;;;;;6242048;23;19927;-78
2021/06/01 21:32:42;;;;;;;;;;;15.30;69.90;;;;;;6192001;23;20316;-77
2021/06/01 21:35:09;;;;;;;;;;;15.10;70.70;;;;;;6216306;23;19955;-78
2021/06/01 21:37:41;;;;;;;;;;;15.10;71.60;;;;;;6241931;23;19955;-78
2021/06/01 21:40:08;;;;;;;;;;;15.00;72.00;;;;;;6242034;23;19923;-77
2021/06/01 21:42:40;;;;;;;;;;;14.90;74.50;;;;;;6241440;22;19936;-78
2021/06/01 21:45:13;;;;;;;;;;;14.70;75.50;;;;;;6240516;23;19923;-77
2021/06/01 21:47:45;;;;;;;;;;;14.70;76.90;;;;;;6192986;23;19958;-78
2021/06/01 21:50:12;;;;;;;;;;;14.60;79.20;;;;;;6242202;23;20257;-77
2021/06/01 21:52:41;;;;;;;;;;;14.40;81.80;;;;;;6192086;23;19920;-77
2021/06/01 21:55:09;;;;;;;;;;;14.40;84.60;;;;;;6267116;22;19954;-77
2021/06/01 21:58:01;;;;;;;;;;;14.30;87.40;;;;;;6241820;23;20534;-77
2021/06/01 22:00:34;;;;;;;;;;;14.20;90.10;;;;;;6218104;23;19923;-77
2021/06/01 22:03:02;;;;;;;;;;;14.00;92.00;;;;;;6243553;22;19947;-77
2021/06/01 22:05:28;;;;;;;;;;;13.90;93.10;;;;;;6241479;23;19950;-77